Latest Coastal Weather Observations for Green Cape

IDN60701

Issued at 8:21 am EST Monday 3 August 2015 (issued every 10 minutes, with the page automatically refreshed every 10 minutes)

About coastal observations | Map of coastal stations | Coastal observations for NSW | Marine services | Other Formats
Station Details ID: 069137 Name: GREEN CAPE AWS Lat: -37.26 Lon: 150.05 Height: 19.4 m
Data from the previous 72 hours. | See also: Recent months at Green Cape
Date/Time
EST
Temp

°C
Wind Pressure Rain
since 9am
mm
Weather Cloud Vis
km
Sea
Height
m
Swell
Dir
 
Speed
knots
Gust
knots
hPa Trend Height
m
Period
s
Dir
03/08:00am 12.8 NW 11 18 1009.1 - 0.0 - - - - - - -
03/07:30am 9.4 SW 3 5 1008.7 - 0.0 - - - - - - -
03/07:00am 8.6 N 5 7 1008.5 - 0.0 - - - - - - -
03/06:30am 7.8 WNW 4 5 1008.3 - 0.0 - - - - - - -
03/06:00am 8.4 WSW 6 8 1008.4 - 0.0 - - - - - - -
03/05:30am 8.6 WNW 4 6 1008.2 - 0.0 - - - - - - -
03/05:00am 9.6 W 7 8 1008.2 - 0.0 - - - - - - -
03/04:30am 9.7 SW 8 11 1008.0 - 0.0 - - - - - - -
03/04:00am 10.2 N 10 13 1007.8 - 0.0 - - - - - - -
03/03:30am 10.1 N 9 13 1007.7 - 0.0 - - - - - - -
03/03:00am 9.8 N 8 10 1008.1 - 0.0 - - - - - - -
03/02:30am 9.6 NNW 9 11 1008.4 - 0.0 - - - - - - -
03/02:00am 10.1 N 9 12 1008.4 - 0.0 - - - - - - -
03/01:30am 9.1 N 7 8 1008.8 - 0.0 - - - - - - -
03/01:00am 9.5 N 6 8 1009.1 - 0.0 - - - - - - -
03/12:30am 10.4 N 8 11 1009.4 - 0.0 - - - - - - -
03/12:00am 11.5 N 13 16 1009.5 - 0.0 - - - - - - -
 
Date/Time
EST
Temp

°C
Wind Pressure Rain
since 9am
mm
Weather Cloud Vis
km
Sea
Height
m
Swell
Dir
 
Speed
knots
Gust
knots
hPa Trend Height
m
Period
s
Dir
02/11:30pm 11.0 N 8 11 1010.0 - 0.0 - - - - - - -
02/11:00pm 11.1 NNW 9 12 1010.5 - 0.0 - - - - - - -
02/10:30pm 10.8 NNW 9 12 1010.5 - 0.0 - - - - - - -
02/10:00pm 10.7 NNW 9 10 1010.8 - 0.0 - - - - - - -
02/09:30pm 10.4 NNW 7 9 1010.8 - 0.0 - - - - - - -
02/09:00pm 10.3 NNW 9 11 1010.8 - 0.0 - - - - - - -
02/08:30pm 10.4 NNW 8 12 1010.3 - 0.0 - - - - - - -
02/08:00pm 10.3 NNW 6 8 1010.1 - 0.0 - - - - - - -
02/07:30pm 10.2 NNW 2 3 1010.3 - 0.0 - - - - - - -
02/07:00pm 10.4 WNW 4 5 1009.8 - 0.0 - - - - - - -
02/06:30pm 10.6 WNW 3 4 1009.2 - 0.0 - - - - - - -
02/06:00pm 10.9 W 2 5 1008.5 - 0.0 - - - - - - -
02/05:30pm 11.1 S 7 9 1008.5 - 0.0 - - - - - - -
02/05:00pm 11.4 S 17 19 1008.0 - 0.0 - - - - - - -
02/04:30pm 11.6 S 19 21 1007.9 - 0.0 - - - - - - -
02/04:00pm 11.7 S 17 20 1007.7 - 0.0 - - - - - - -
02/03:30pm 12.5 S 13 17 1007.6 - 0.0 - - - - - - -
02/03:00pm 12.4 S 9 10 1007.7 - 0.0 - - - - - - -
02/02:30pm 12.3 SSW 9 11 1007.4 - 0.0 - - - - - - -
02/02:00pm 12.3 SSW 8 11 1007.6 - 0.0 - - - - - - -
02/01:30pm 11.4 SW 10 13 1007.4 - 0.0 - - - - - - -
02/01:00pm 11.3 WSW 16 17 1008.1 - 0.0 - - - - - - -
02/12:30pm 11.1 WSW 16 18 1008.8 - 0.0 - - - - - - -
02/12:00pm 11.5 W 13 15 1009.3 - 0.0 - - - - - - -
02/11:30am 12.1 SSW 12 14 1009.4 - 0.0 - - - - - - -
02/11:00am 12.0 SW 8 9 1009.2 - 0.0 - - - - - - -
02/10:30am 11.9 W 9 10 1010.0 - 0.0 - - - - - - -
02/10:00am 11.5 WSW 9 11 1010.0 - 0.0 - - - - - - -
02/09:30am 11.0 WSW 12 14 1010.0 - 0.0 - - - - - - -
02/09:00am 10.6 W 11 12 1010.4 - 0.6 - - - - - - -
02/08:30am 10.3 W 8 9 1010.7 - 0.6 - - - - - - -
02/08:00am 10.2 W 6 7 1011.2 - 0.6 - - - - - - -
02/07:30am 10.2 W 6 7 1011.3 - 0.6 - - - - - - -
02/07:00am 10.9 N 4 7 1011.8 - 0.4 - - - - - - -
02/06:30am 10.8 N 6 7 1012.4 - 0.4 - - - - - - -
02/06:00am 10.6 NNE 5 8 1012.3 - 0.4 - - - - - - -
02/05:30am 10.2 NNW 2 3 1012.5 - 0.4 - - - - - - -
02/05:00am 10.4 NNE 6 8 1013.1 - 0.4 - - - - - - -
02/04:30am 10.1 NNE 7 9 1013.3 - 0.4 - - - - - - -
02/04:00am 9.2 N 2 4 1014.2 - 0.4 - - - - - - -
02/03:30am 9.5 W 5 7 1015.1 - 0.4 - - - - - - -
02/03:00am 9.6 W 6 7 1015.0 - 0.4 Recent precip. - - - - - -
02/02:30am 9.3 WNW 4 5 1015.2 - 0.4 - - - - - - -
02/02:00am 9.4 WNW 4 6 1015.3 - 0.2 - - - - - - -
02/01:30am 9.3 WNW 5 7 1015.6 - 0.2 - - - - - - -
02/01:00am 9.6 W 8 10 1015.8 - 0.2 - - - - - - -
02/12:30am 9.8 W 7 9 1015.8 - 0.0 - - - - - - -
02/12:00am 10.0 W 9 11 1015.9 - 0.0 - - - - - - -
 
Date/Time
EST
Temp

°C
Wind Pressure Rain
since 9am
mm
Weather Cloud Vis
km
Sea
Height
m
Swell
Dir
 
Speed
knots
Gust
knots
hPa Trend Height
m
Period
s
Dir
01/11:30pm 10.4 W 9 11 1016.1 - 0.0 - - - - - - -
01/11:00pm 10.2 W 9 12 1016.1 - 0.0 - - - - - - -
01/10:30pm 10.6 W 9 11 1016.2 - 0.0 - - - - - - -
01/10:00pm 10.7 WSW 9 11 1016.1 - 0.0 - - - - - - -
01/09:30pm 10.8 WSW 10 13 1016.2 - 0.0 - - - - - - -
01/09:00pm 10.9 WSW 12 13 1016.5 - 0.0 - - - - - - -
01/08:30pm 10.9 WSW 13 16 1016.3 - 0.0 - - - - - - -
01/08:00pm 10.9 WSW 15 18 1016.2 - 0.0 - - - - - - -
01/07:30pm 11.1 WSW 14 16 1015.8 - 0.0 - - - - - - -
01/07:00pm 11.0 WSW 14 16 1015.5 - 0.0 - - - - - - -
01/06:30pm 11.0 SW 16 18 1015.2 - 0.0 - - - - - - -
01/06:00pm 11.0 SW 14 17 1015.0 - 0.0 - - - - - - -
01/05:30pm 11.2 SW 16 19 1014.6 - 0.0 - - - - - - -
01/05:00pm 11.2 SSW 17 20 1014.2 - 0.0 - - - - - - -
01/04:30pm 11.5 SSW 21 25 1013.5 - 0.0 - - - - - - -
01/04:00pm 12.1 S 16 19 1013.1 - 0.0 - - - - - - -
01/03:30pm 12.6 SSW 17 21 1012.7 - 0.0 - - - - - - -
01/03:00pm 13.0 SSW 22 24 1012.2 - 0.0 - - - - - - -
01/02:30pm 13.4 S 26 30 1011.1 - 0.0 - - - - - - -
01/02:00pm 14.3 S 23 27 1010.4 - 0.0 - - - - - - -
01/01:41pm 15.2 SSW 10 26 1010.2 - 0.0 - - - - - - -
01/01:30pm 14.9 WSW 4 6 1010.2 - 0.0 - - - - - - -
01/01:00pm 14.7 N 8 9 1009.2 - 0.0 - - - - - - -
01/12:30pm 15.2 N 11 12 1009.1 - 0.0 - - - - - - -
01/12:00pm 15.2 N 14 16 1009.6 - 0.0 - - - - - - -
01/11:30am 16.3 N 14 17 1010.0 - 0.0 - - - - - - -
01/11:00am 16.1 N 12 14 1010.4 - 0.0 - - - - - - -
01/10:30am 15.3 N 12 14 1010.0 - 0.0 - - - - - - -
01/10:00am 14.8 N 13 16 1009.9 - 0.0 - - - - - - -
01/09:30am 14.0 N 14 17 1010.1 - 0.0 - - - - - - -
01/09:00am 13.0 N 11 13 1010.9 - 0.0 - - - - - - -
01/08:30am 12.8 N 14 16 1010.9 - 0.0 - - - - - - -
01/08:00am 12.0 N 12 13 1010.8 - 0.0 - - - - - - -
01/07:30am 11.7 N 6 7 1011.4 - 0.0 - - - - - - -
01/07:00am 11.6 N 7 8 1011.8 - 0.0 - - - - - - -
01/06:30am 11.4 NNW 7 10 1011.9 - 0.0 - - - - - - -
01/06:00am 11.4 NNW 6 9 1012.1 - 0.0 - - - - - - -
01/05:30am 11.9 N 11 12 1011.8 - 0.0 - - - - - - -
01/05:00am 11.9 N 10 13 1011.9 - 0.0 - - - - - - -
01/04:30am 11.9 N 11 14 1011.7 - 0.0 - - - - - - -
01/04:00am 11.6 N 10 13 1012.1 - 0.0 - - - - - - -
01/03:30am 11.3 NNW 9 12 1012.6 - 0.0 - - - - - - -
01/03:00am 11.8 N 24 29 1011.8 - 0.0 - - - - - - -
01/02:30am 11.5 N 22 26 1012.4 - 0.0 - - - - - - -
01/02:00am 11.7 N 19 24 1013.2 - 0.0 - - - - - - -
01/01:30am 11.8 N 19 23 1013.5 - 0.0 - - - - - - -
01/01:00am 12.3 N 21 23 1014.5 - 0.0 - - - - - - -
01/12:30am 12.7 N 23 27 1014.6 - 0.0 - - - - - - -
01/12:00am 12.9 N 23 26 1015.2 - 0.0 - - - - - - -
 
Date/Time
EST
Temp

°C
Wind Pressure Rain
since 9am
mm
Weather Cloud Vis
km
Sea
Height
m
Swell
Dir
 
Speed
knots
Gust
knots
hPa Trend Height
m
Period
s
Dir
31/11:30pm 13.0 N 24 28 1015.6 - 0.0 - - - - - - -
31/11:00pm 13.1 N 21 26 1016.3 - 0.0 - - - - - - -
31/10:30pm 13.4 N 21 25 1017.1 - 0.0 - - - - - - -
31/10:00pm 13.5 N 26 30 1016.9 - 0.0 - - - - - - -
31/09:30pm 13.4 NNE 26 31 1017.5 - 0.0 - - - - - - -
31/09:00pm 13.3 N 25 28 1018.0 - 0.0 - - - - - - -
31/08:30pm 13.2 NNE 22 26 1018.3 - 0.0 - - - - - - -
31/08:00pm 12.9 NNE 22 26 1018.1 - 0.0 - - - - - - -
31/07:30pm 12.9 NNE 18 22 1018.5 - 0.0 - - - - - - -
31/07:00pm 12.5 NNE 12 15 1018.8 - 0.0 - - - - - - -
31/06:30pm 11.7 NNE 10 12 1018.6 - 0.0 - - - - - - -
31/06:00pm 11.5 NNE 9 12 1018.5 - 0.0 - - - - - - -
31/05:30pm 11.8 ENE 6 8 1018.9 - 0.0 - - - - - - -
31/05:00pm 11.6 SE 4 6 1019.2 - 0.0 - - - - - - -
31/04:30pm 12.5 SE 5 7 1019.0 - 0.0 - - - - - - -
31/04:00pm 13.1 SSE 8 10 1018.9 - 0.0 - - - - - - -
31/03:30pm 13.7 SSE 9 11 1018.9 - 0.0 - - - - - - -
31/03:00pm 14.0 SSE 11 13 1018.7 - 0.0 - - - - - - -
31/02:30pm 14.6 SSE 12 13 1018.5 - 0.0 - - - - - - -
31/02:00pm 15.7 SSE 7 9 1019.0 - 0.0 - - - - - - -
31/01:30pm 15.2 S 8 10 1019.2 - 0.0 - - - - - - -
31/01:00pm 13.7 SW 7 9 1019.6 - 0.0 - - - - - - -
31/12:30pm 13.2 SSW 9 11 1019.8 - 0.0 - - - - - - -
31/12:00pm 13.2 WSW 7 10 1020.5 - 0.0 - - - - - - -
31/11:30am 12.9 WSW 13 16 1020.8 - 0.0 - - - - - - -
31/11:00am 12.6 WSW 16 19 1020.7 - 0.0 - - - - - - -
31/10:30am 12.1 WSW 15 17 1020.9 - 0.0 - - - - - - -
31/10:00am 11.5 WSW 15 18 1020.7 - 0.0 - - - - - - -
31/09:30am 11.4 WSW 14 18 1020.6 - 0.0 - - - - - - -
31/09:00am 10.9 WSW 13 16 1020.6 - 0.0 - - - - - - -
31/08:30am 10.9 WSW 11 14 1020.4 - 0.0 - - - - - - -

Other Formats:

Comma delimited format used in spreadsheet applications
http://www.bom.gov.au/fwo/IDN60701/IDN60701.94934.axf

JavaScript Object Notation format (JSON) in row-major order
http://www.bom.gov.au/fwo/IDN60701/IDN60701.94934.json